sensor_id;sensor_type;location;lat;lon;timestamp;temperature;humidity
40374;DHT22;26079;45.958;12.492;2023-07-13T00:01:13;20.50;99.90
40374;DHT22;26079;45.958;12.492;2023-07-13T00:03:38;20.20;99.90
40374;DHT22;26079;45.958;12.492;2023-07-13T00:06:07;20.10;99.90
40374;DHT22;26079;45.958;12.492;2023-07-13T00:08:33;20.10;99.90
40374;DHT22;26079;45.958;12.492;2023-07-13T00:11:03;20.00;99.90
40374;DHT22;26079;45.958;12.492;2023-07-13T00:13:29;20.10;99.90
40374;DHT22;26079;45.958;12.492;2023-07-13T00:15:57;20.10;99.90
40374;DHT22;26079;45.958;12.492;2023-07-13T00:18:23;20.10;99.90
40374;DHT22;26079;45.958;12.492;2023-07-13T00:20:49;20.00;99.90
40374;DHT22;26079;45.958;12.492;2023-07-13T00:23:15;19.90;99.90
40374;DHT22;26079;45.958;12.492;2023-07-13T00:25:42;19.80;99.90
40374;DHT22;26079;45.958;12.492;2023-07-13T00:28:08;19.70;99.90
40374;DHT22;26079;45.958;12.492;2023-07-13T00:30:34;19.80;99.90
40374;DHT22;26079;45.958;12.492;2023-07-13T00:33:00;19.80;99.90
40374;DHT22;26079;45.958;12.492;2023-07-13T00:35:27;19.80;99.90
40374;DHT22;26079;45.958;12.492;2023-07-13T00:37:55;19.80;99.90
40374;DHT22;26079;45.958;12.492;2023-07-13T00:40:21;19.80;99.90
40374;DHT22;26079;45.958;12.492;2023-07-13T00:42:47;19.80;99.90
40374;DHT22;26079;45.958;12.492;2023-07-13T00:47:40;19.80;99.90
40374;DHT22;26079;45.958;12.492;2023-07-13T00:50:09;19.70;99.90
40374;DHT22;26079;45.958;12.492;2023-07-13T00:52:37;19.80;99.90
40374;DHT22;26079;45.958;12.492;2023-07-13T00:55:04;19.90;99.90
40374;DHT22;26079;45.958;12.492;2023-07-13T00:57:30;19.90;99.90
40374;DHT22;26079;45.958;12.492;2023-07-13T00:59:59;19.80;99.90
40374;DHT22;26079;45.958;12.492;2023-07-13T01:02:27;19.80;99.90
40374;DHT22;26079;45.958;12.492;2023-07-13T01:04:53;19.70;99.90
40374;DHT22;26079;45.958;12.492;2023-07-13T01:07:19;19.80;99.90
40374;DHT22;26079;45.958;12.492;2023-07-13T01:09:45;19.70;99.90
40374;DHT22;26079;45.958;12.492;2023-07-13T01:12:11;19.60;99.90
40374;DHT22;26079;45.958;12.492;2023-07-13T01:14:37;19.50;99.90
40374;DHT22;26079;45.958;12.492;2023-07-13T01:17:04;19.40;99.90
40374;DHT22;26079;45.958;12.492;2023-07-13T01:19:48;19.50;99.90
40374;DHT22;26079;45.958;12.492;2023-07-13T01:22:16;19.50;99.90
40374;DHT22;26079;45.958;12.492;2023-07-13T01:24:45;19.50;99.90
40374;DHT22;26079;45.958;12.492;2023-07-13T01:27:13;19.50;99.90
40374;DHT22;26079;45.958;12.492;2023-07-13T01:29:41;19.50;99.90
40374;DHT22;26079;45.958;12.492;2023-07-13T01:32:14;19.50;99.90
40374;DHT22;26079;45.958;12.492;2023-07-13T01:34:40;19.60;99.90
40374;DHT22;26079;45.958;12.492;2023-07-13T01:37:11;19.70;99.90
40374;DHT22;26079;45.958;12.492;2023-07-13T01:39:37;19.70;99.90
40374;DHT22;26079;45.958;12.492;2023-07-13T01:42:03;19.70;99.90
40374;DHT22;26079;45.958;12.492;2023-07-13T01:44:29;19.70;99.90
40374;DHT22;26079;45.958;12.492;2023-07-13T01:46:56;19.70;99.90
40374;DHT22;26079;45.958;12.492;2023-07-13T01:49:22;19.50;99.90
40374;DHT22;26079;45.958;12.492;2023-07-13T01:51:47;19.50;99.90
40374;DHT22;26079;45.958;12.492;2023-07-13T01:54:13;19.50;99.90
40374;DHT22;26079;45.958;12.492;2023-07-13T01:56:39;19.50;99.90
40374;DHT22;26079;45.958;12.492;2023-07-13T01:59:05;19.50;99.90
40374;DHT22;26079;45.958;12.492;2023-07-13T02:01:31;19.50;99.90
40374;DHT22;26079;45.958;12.492;2023-07-13T02:03:56;19.70;99.90
40374;DHT22;26079;45.958;12.492;2023-07-13T02:06:22;19.70;99.90
40374;DHT22;26079;45.958;12.492;2023-07-13T02:08:48;19.60;99.90
40374;DHT22;26079;45.958;12.492;2023-07-13T02:11:13;19.50;99.90
40374;DHT22;26079;45.958;12.492;2023-07-13T02:13:39;19.40;99.90
40374;DHT22;26079;45.958;12.492;2023-07-13T02:16:05;19.30;99.90
40374;DHT22;26079;45.958;12.492;2023-07-13T02:18:32;19.30;99.90
40374;DHT22;26079;45.958;12.492;2023-07-13T02:20:59;19.30;99.90
40374;DHT22;26079;45.958;12.492;2023-07-13T02:23:24;19.30;99.90
40374;DHT22;26079;45.958;12.492;2023-07-13T02:25:55;19.40;99.90
40374;DHT22;26079;45.958;12.492;2023-07-13T02:28:21;19.40;99.90
40374;DHT22;26079;45.958;12.492;2023-07-13T02:30:47;19.40;99.90
40374;DHT22;26079;45.958;12.492;2023-07-13T02:33:12;19.40;99.90
40374;DHT22;26079;45.958;12.492;2023-07-13T02:35:38;19.50;99.90
40374;DHT22;26079;45.958;12.492;2023-07-13T02:38:04;19.50;99.90
40374;DHT22;26079;45.958;12.492;2023-07-13T02:40:30;19.50;99.90
40374;DHT22;26079;45.958;12.492;2023-07-13T02:42:58;19.50;99.90
40374;DHT22;26079;45.958;12.492;2023-07-13T02:45:25;19.60;99.90
40374;DHT22;26079;45.958;12.492;2023-07-13T02:47:51;19.50;99.90
40374;DHT22;26079;45.958;12.492;2023-07-13T02:50:16;19.50;99.90
40374;DHT22;26079;45.958;12.492;2023-07-13T02:52:42;19.50;99.90
40374;DHT22;26079;45.958;12.492;2023-07-13T02:55:08;19.40;99.90
40374;DHT22;26079;45.958;12.492;2023-07-13T02:57:34;19.40;99.90
40374;DHT22;26079;45.958;12.492;2023-07-13T03:00:00;19.40;99.90
40374;DHT22;26079;45.958;12.492;2023-07-13T03:02:26;19.30;99.90
40374;DHT22;26079;45.958;12.492;2023-07-13T03:04:54;19.30;99.90
40374;DHT22;26079;45.958;12.492;2023-07-13T03:07:20;19.40;99.90
40374;DHT22;26079;45.958;12.492;2023-07-13T03:09:46;19.40;99.90
40374;DHT22;26079;45.958;12.492;2023-07-13T03:12:12;19.50;99.90
40374;DHT22;26079;45.958;12.492;2023-07-13T03:14:37;19.50;99.90
40374;DHT22;26079;45.958;12.492;2023-07-13T03:17:03;19.50;99.90
40374;DHT22;26079;45.958;12.492;2023-07-13T03:19:29;19.40;99.90
40374;DHT22;26079;45.958;12.492;2023-07-13T03:21:55;19.40;99.90
40374;DHT22;26079;45.958;12.492;2023-07-13T03:24:20;19.40;99.90
40374;DHT22;26079;45.958;12.492;2023-07-13T03:26:48;19.40;99.90
40374;DHT22;26079;45.958;12.492;2023-07-13T03:29:14;19.40;99.90
40374;DHT22;26079;45.958;12.492;2023-07-13T03:31:40;19.40;99.90
40374;DHT22;26079;45.958;12.492;2023-07-13T03:34:05;19.40;99.90
40374;DHT22;26079;45.958;12.492;2023-07-13T03:36:32;19.30;99.90
40374;DHT22;26079;45.958;12.492;2023-07-13T03:39:00;19.30;99.90
40374;DHT22;26079;45.958;12.492;2023-07-13T03:41:27;19.20;99.90
40374;DHT22;26079;45.958;12.492;2023-07-13T03:43:53;19.20;99.90
40374;DHT22;26079;45.958;12.492;2023-07-13T03:46:19;19.30;99.90
40374;DHT22;26079;45.958;12.492;2023-07-13T03:48:46;19.30;99.90
40374;DHT22;26079;45.958;12.492;2023-07-13T03:51:14;19.30;99.90
40374;DHT22;26079;45.958;12.492;2023-07-13T03:53:45;19.30;99.90
40374;DHT22;26079;45.958;12.492;2023-07-13T03:56:11;19.50;99.90
40374;DHT22;26079;45.958;12.492;2023-07-13T03:58:39;19.40;99.90
40374;DHT22;26079;45.958;12.492;2023-07-13T04:01:07;19.40;99.90
40374;DHT22;26079;45.958;12.492;2023-07-13T04:03:34;19.50;99.90
40374;DHT22;26079;45.958;12.492;2023-07-13T04:06:01;19.50;99.90
40374;DHT22;26079;45.958;12.492;2023-07-13T04:08:28;19.50;99.90
40374;DHT22;26079;45.958;12.492;2023-07-13T04:10:54;19.50;99.90
40374;DHT22;26079;45.958;12.492;2023-07-13T04:13:20;19.50;99.90
40374;DHT22;26079;45.958;12.492;2023-07-13T04:15:46;19.50;99.90
40374;DHT22;26079;45.958;12.492;2023-07-13T04:18:12;19.60;99.90
40374;DHT22;26079;45.958;12.492;2023-07-13T04:20:37;19.70;99.90
40374;DHT22;26079;45.958;12.492;2023-07-13T04:23:03;19.70;99.90
40374;DHT22;26079;45.958;12.492;2023-07-13T04:25:29;19.80;99.90
40374;DHT22;26079;45.958;12.492;2023-07-13T04:27:55;19.80;99.90
40374;DHT22;26079;45.958;12.492;2023-07-13T04:30:21;19.80;99.90
40374;DHT22;26079;45.958;12.492;2023-07-13T04:32:47;19.90;99.90
40374;DHT22;26079;45.958;12.492;2023-07-13T04:35:13;19.70;99.90
40374;DHT22;26079;45.958;12.492;2023-07-13T04:37:40;19.70;99.90
40374;DHT22;26079;45.958;12.492;2023-07-13T04:40:06;19.70;99.90
40374;DHT22;26079;45.958;12.492;2023-07-13T04:42:35;19.70;99.90
40374;DHT22;26079;45.958;12.492;2023-07-13T04:45:01;19.80;99.90
40374;DHT22;26079;45.958;12.492;2023-07-13T04:47:30;19.90;99.90
40374;DHT22;26079;45.958;12.492;2023-07-13T04:49:56;20.00;99.90
40374;DHT22;26079;45.958;12.492;2023-07-13T04:52:23;20.00;99.90
40374;DHT22;26079;45.958;12.492;2023-07-13T04:54:49;20.00;99.90
40374;DHT22;26079;45.958;12.492;2023-07-13T04:57:15;20.10;99.90
40374;DHT22;26079;45.958;12.492;2023-07-13T04:59:40;20.10;99.90
40374;DHT22;26079;45.958;12.492;2023-07-13T05:02:06;20.10;99.90
40374;DHT22;26079;45.958;12.492;2023-07-13T05:04:32;20.20;99.90
40374;DHT22;26079;45.958;12.492;2023-07-13T05:06:59;20.20;99.90
40374;DHT22;26079;45.958;12.492;2023-07-13T05:09:25;20.20;99.90
40374;DHT22;26079;45.958;12.492;2023-07-13T05:11:51;20.10;99.90
40374;DHT22;26079;45.958;12.492;2023-07-13T05:14:16;20.20;99.90
40374;DHT22;26079;45.958;12.492;2023-07-13T05:16:42;20.20;99.90
40374;DHT22;26079;45.958;12.492;2023-07-13T05:19:08;20.30;99.90
40374;DHT22;26079;45.958;12.492;2023-07-13T05:21:34;20.40;99.90
40374;DHT22;26079;45.958;12.492;2023-07-13T05:24:00;20.50;99.90
40374;DHT22;26079;45.958;12.492;2023-07-13T05:26:26;20.60;99.90
40374;DHT22;26079;45.958;12.492;2023-07-13T05:28:52;20.50;99.90
40374;DHT22;26079;45.958;12.492;2023-07-13T05:31:18;20.50;99.90
40374;DHT22;26079;45.958;12.492;2023-07-13T05:33:44;20.50;99.90
40374;DHT22;26079;45.958;12.492;2023-07-13T05:36:10;20.60;99.90
40374;DHT22;26079;45.958;12.492;2023-07-13T05:38:35;20.70;99.90
40374;DHT22;26079;45.958;12.492;2023-07-13T05:41:01;20.70;99.90
40374;DHT22;26079;45.958;12.492;2023-07-13T05:43:27;20.80;99.90
40374;DHT22;26079;45.958;12.492;2023-07-13T05:45:54;20.90;99.90
40374;DHT22;26079;45.958;12.492;2023-07-13T05:48:20;21.00;99.90
40374;DHT22;26079;45.958;12.492;2023-07-13T05:50:46;21.10;99.90
40374;DHT22;26079;45.958;12.492;2023-07-13T05:53:12;21.20;99.90
40374;DHT22;26079;45.958;12.492;2023-07-13T05:55:46;21.30;99.90
40374;DHT22;26079;45.958;12.492;2023-07-13T05:58:13;21.20;99.90
40374;DHT22;26079;45.958;12.492;2023-07-13T06:00:39;21.50;99.90
40374;DHT22;26079;45.958;12.492;2023-07-13T06:03:06;21.90;99.90
40374;DHT22;26079;45.958;12.492;2023-07-13T06:05:33;22.00;99.90
40374;DHT22;26079;45.958;12.492;2023-07-13T06:08:00;22.00;99.90
40374;DHT22;26079;45.958;12.492;2023-07-13T06:10:26;22.00;99.90
40374;DHT22;26079;45.958;12.492;2023-07-13T06:12:51;22.00;99.90
40374;DHT22;26079;45.958;12.492;2023-07-13T06:15:17;22.00;99.90
40374;DHT22;26079;45.958;12.492;2023-07-13T06:17:43;22.00;99.90
40374;DHT22;26079;45.958;12.492;2023-07-13T06:20:09;22.10;99.90
40374;DHT22;26079;45.958;12.492;2023-07-13T06:22:35;22.20;99.90
40374;DHT22;26079;45.958;12.492;2023-07-13T06:25:01;22.20;99.90
40374;DHT22;26079;45.958;12.492;2023-07-13T06:27:26;22.30;99.90
40374;DHT22;26079;45.958;12.492;2023-07-13T06:29:52;22.40;99.90
40374;DHT22;26079;45.958;12.492;2023-07-13T06:32:18;22.40;99.90
40374;DHT22;26079;45.958;12.492;2023-07-13T06:34:44;22.60;99.90
40374;DHT22;26079;45.958;12.492;2023-07-13T06:37:10;22.90;99.90
40374;DHT22;26079;45.958;12.492;2023-07-13T06:39:36;23.00;99.90
40374;DHT22;26079;45.958;12.492;2023-07-13T06:42:01;23.10;99.90
40374;DHT22;26079;45.958;12.492;2023-07-13T06:44:27;23.10;99.90
40374;DHT22;26079;45.958;12.492;2023-07-13T06:46:53;23.10;99.90
40374;DHT22;26079;45.958;12.492;2023-07-13T06:49:19;22.90;99.90
40374;DHT22;26079;45.958;12.492;2023-07-13T06:51:44;22.90;99.90
40374;DHT22;26079;45.958;12.492;2023-07-13T06:54:10;22.90;99.90
40374;DHT22;26079;45.958;12.492;2023-07-13T06:56:36;22.90;99.90
40374;DHT22;26079;45.958;12.492;2023-07-13T06:59:01;23.10;99.90
40374;DHT22;26079;45.958;12.492;2023-07-13T07:01:27;23.20;99.90
40374;DHT22;26079;45.958;12.492;2023-07-13T07:03:53;23.40;99.90
40374;DHT22;26079;45.958;12.492;2023-07-13T07:06:21;23.40;99.90
40374;DHT22;26079;45.958;12.492;2023-07-13T07:08:50;23.60;99.90
40374;DHT22;26079;45.958;12.492;2023-07-13T07:11:24;23.80;99.90
40374;DHT22;26079;45.958;12.492;2023-07-13T07:13:51;24.10;99.90
40374;DHT22;26079;45.958;12.492;2023-07-13T07:16:18;24.20;99.90
40374;DHT22;26079;45.958;12.492;2023-07-13T07:18:44;24.20;99.90
40374;DHT22;26079;45.958;12.492;2023-07-13T07:21:10;24.50;99.90
40374;DHT22;26079;45.958;12.492;2023-07-13T07:23:36;24.70;99.90
40374;DHT22;26079;45.958;12.492;2023-07-13T07:26:02;24.80;99.70
40374;DHT22;26079;45.958;12.492;2023-07-13T07:28:28;24.70;98.70
40374;DHT22;26079;45.958;12.492;2023-07-13T07:30:56;24.60;99.90
40374;DHT22;26079;45.958;12.492;2023-07-13T07:33:23;24.70;99.90
40374;DHT22;26079;45.958;12.492;2023-07-13T07:35:49;24.60;99.90
40374;DHT22;26079;45.958;12.492;2023-07-13T07:38:14;24.60;99.90
40374;DHT22;26079;45.958;12.492;2023-07-13T07:40:41;24.60;99.90
40374;DHT22;26079;45.958;12.492;2023-07-13T07:43:08;24.50;99.90
40374;DHT22;26079;45.958;12.492;2023-07-13T07:45:34;24.40;99.90
40374;DHT22;26079;45.958;12.492;2023-07-13T07:48:00;24.30;99.90
40374;DHT22;26079;45.958;12.492;2023-07-13T07:50:26;24.30;99.90
40374;DHT22;26079;45.958;12.492;2023-07-13T07:52:52;24.20;99.90
40374;DHT22;26079;45.958;12.492;2023-07-13T07:55:18;24.30;99.90
40374;DHT22;26079;45.958;12.492;2023-07-13T07:57:44;24.30;99.90
40374;DHT22;26079;45.958;12.492;2023-07-13T08:00:10;24.40;99.90
40374;DHT22;26079;45.958;12.492;2023-07-13T08:02:37;24.40;99.90
40374;DHT22;26079;45.958;12.492;2023-07-13T08:05:02;24.50;99.90
40374;DHT22;26079;45.958;12.492;2023-07-13T08:07:30;24.60;99.90
40374;DHT22;26079;45.958;12.492;2023-07-13T08:09:56;24.80;99.90
40374;DHT22;26079;45.958;12.492;2023-07-13T08:12:22;24.90;99.90
40374;DHT22;26079;45.958;12.492;2023-07-13T08:14:50;24.90;99.80
40374;DHT22;26079;45.958;12.492;2023-07-13T08:17:22;25.00;99.90
40374;DHT22;26079;45.958;12.492;2023-07-13T08:19:48;25.20;99.70
40374;DHT22;26079;45.958;12.492;2023-07-13T08:22:14;25.20;99.20
40374;DHT22;26079;45.958;12.492;2023-07-13T08:24:40;25.20;98.90
40374;DHT22;26079;45.958;12.492;2023-07-13T08:27:08;25.20;99.90
40374;DHT22;26079;45.958;12.492;2023-07-13T08:29:34;25.20;96.90
40374;DHT22;26079;45.958;12.492;2023-07-13T08:31:59;25.20;96.20
40374;DHT22;26079;45.958;12.492;2023-07-13T08:34:25;25.30;97.30
40374;DHT22;26079;45.958;12.492;2023-07-13T08:36:51;25.40;97.30
40374;DHT22;26079;45.958;12.492;2023-07-13T08:39:17;25.60;97.30
40374;DHT22;26079;45.958;12.492;2023-07-13T08:41:46;25.70;94.20
40374;DHT22;26079;45.958;12.492;2023-07-13T08:47:17;26.20;94.00
40374;DHT22;26079;45.958;12.492;2023-07-13T08:49:46;26.10;89.10
40374;DHT22;26079;45.958;12.492;2023-07-13T08:52:17;26.10;89.90
40374;DHT22;26079;45.958;12.492;2023-07-13T08:54:49;26.20;93.10
40374;DHT22;26079;45.958;12.492;2023-07-13T08:57:19;26.40;93.60
40374;DHT22;26079;45.958;12.492;2023-07-13T08:59:46;26.40;91.20
40374;DHT22;26079;45.958;12.492;2023-07-13T09:05:00;26.50;88.60
40374;DHT22;26079;45.958;12.492;2023-07-13T09:16:37;26.40;90.00
40374;DHT22;26079;45.958;12.492;2023-07-13T09:19:06;26.40;89.80
40374;DHT22;26079;45.958;12.492;2023-07-13T09:21:38;26.30;88.20
40374;DHT22;26079;45.958;12.492;2023-07-13T09:26:56;25.80;89.90
40374;DHT22;26079;45.958;12.492;2023-07-13T09:29:32;25.50;92.90
40374;DHT22;26079;45.958;12.492;2023-07-13T09:32:03;25.30;95.00
40374;DHT22;26079;45.958;12.492;2023-07-13T09:34:31;24.90;95.00
40374;DHT22;26079;45.958;12.492;2023-07-13T09:36:57;24.50;98.50
40374;DHT22;26079;45.958;12.492;2023-07-13T09:39:38;24.10;99.90
40374;DHT22;26079;45.958;12.492;2023-07-13T09:47:02;23.50;99.90
40374;DHT22;26079;45.958;12.492;2023-07-13T09:49:35;23.50;99.90
40374;DHT22;26079;45.958;12.492;2023-07-13T09:52:07;23.50;99.90
40374;DHT22;26079;45.958;12.492;2023-07-13T09:54:35;23.50;99.90
40374;DHT22;26079;45.958;12.492;2023-07-13T09:57:08;23.50;99.90
40374;DHT22;26079;45.958;12.492;2023-07-13T09:59:43;23.50;99.90
40374;DHT22;26079;45.958;12.492;2023-07-13T10:02:33;23.50;99.90
40374;DHT22;26079;45.958;12.492;2023-07-13T10:05:03;23.60;99.90
40374;DHT22;26079;45.958;12.492;2023-07-13T10:07:30;23.70;99.90
40374;DHT22;26079;45.958;12.492;2023-07-13T10:09:59;23.70;99.90
40374;DHT22;26079;45.958;12.492;2023-07-13T10:12:27;23.80;99.90
40374;DHT22;26079;45.958;12.492;2023-07-13T10:14:56;24.00;99.90
40374;DHT22;26079;45.958;12.492;2023-07-13T10:17:31;24.10;99.90
40374;DHT22;26079;45.958;12.492;2023-07-13T10:20:03;24.20;99.90
40374;DHT22;26079;45.958;12.492;2023-07-13T10:22:51;24.30;99.90
40374;DHT22;26079;45.958;12.492;2023-07-13T10:25:46;24.50;99.90
40374;DHT22;26079;45.958;12.492;2023-07-13T10:28:36;24.60;99.90
40374;DHT22;26079;45.958;12.492;2023-07-13T10:31:05;24.80;99.90
40374;DHT22;26079;45.958;12.492;2023-07-13T10:33:35;24.80;99.90
40374;DHT22;26079;45.958;12.492;2023-07-13T10:36:24;24.80;99.90
40374;DHT22;26079;45.958;12.492;2023-07-13T10:38:55;24.90;99.90
40374;DHT22;26079;45.958;12.492;2023-07-13T10:41:25;24.80;99.80
40374;DHT22;26079;45.958;12.492;2023-07-13T10:43:52;24.60;99.90
40374;DHT22;26079;45.958;12.492;2023-07-13T10:46:23;24.70;99.90
40374;DHT22;26079;45.958;12.492;2023-07-13T10:48:55;24.80;99.90
40374;DHT22;26079;45.958;12.492;2023-07-13T10:51:22;24.70;99.90
40374;DHT22;26079;45.958;12.492;2023-07-13T10:54:19;24.80;99.90
40374;DHT22;26079;45.958;12.492;2023-07-13T10:56:50;24.90;99.90
40374;DHT22;26079;45.958;12.492;2023-07-13T10:59:27;25.10;99.90
40374;DHT22;26079;45.958;12.492;2023-07-13T11:02:11;25.40;99.90
40374;DHT22;26079;45.958;12.492;2023-07-13T11:04:56;25.60;99.90
40374;DHT22;26079;45.958;12.492;2023-07-13T11:07:30;25.70;99.90
40374;DHT22;26079;45.958;12.492;2023-07-13T11:10:05;25.80;99.90
40374;DHT22;26079;45.958;12.492;2023-07-13T11:12:53;26.00;99.90
40374;DHT22;26079;45.958;12.492;2023-07-13T11:15:43;25.90;95.80
40374;DHT22;26079;45.958;12.492;2023-07-13T11:18:23;26.00;99.90
40374;DHT22;26079;45.958;12.492;2023-07-13T11:20:51;26.10;98.40
40374;DHT22;26079;45.958;12.492;2023-07-13T11:23:18;26.20;91.50
40374;DHT22;26079;45.958;12.492;2023-07-13T11:25:44;26.10;87.70
40374;DHT22;26079;45.958;12.492;2023-07-13T11:33:24;26.40;85.60
40374;DHT22;26079;45.958;12.492;2023-07-13T11:36:27;26.50;87.30
40374;DHT22;26079;45.958;12.492;2023-07-13T11:38:57;26.60;88.30
40374;DHT22;26079;45.958;12.492;2023-07-13T11:41:30;26.60;86.10
40374;DHT22;26079;45.958;12.492;2023-07-13T11:44:15;26.60;86.80
40374;DHT22;26079;45.958;12.492;2023-07-13T11:46:49;26.60;91.20
40374;DHT22;26079;45.958;12.492;2023-07-13T11:49:17;26.70;86.80
40374;DHT22;26079;45.958;12.492;2023-07-13T11:51:43;26.70;89.40
40374;DHT22;26079;45.958;12.492;2023-07-13T11:57:23;27.10;88.20
40374;DHT22;26079;45.958;12.492;2023-07-13T11:59:51;27.50;87.10
40374;DHT22;26079;45.958;12.492;2023-07-13T12:02:39;27.70;87.60
40374;DHT22;26079;45.958;12.492;2023-07-13T12:05:11;27.80;86.50
40374;DHT22;26079;45.958;12.492;2023-07-13T12:07:38;27.70;84.80
40374;DHT22;26079;45.958;12.492;2023-07-13T12:13:12;28.20;84.30
40374;DHT22;26079;45.958;12.492;2023-07-13T12:15:41;28.40;85.10
40374;DHT22;26079;45.958;12.492;2023-07-13T12:18:22;28.70;83.40
40374;DHT22;26079;45.958;12.492;2023-07-13T12:20:50;28.80;83.00
40374;DHT22;26079;45.958;12.492;2023-07-13T12:23:33;28.70;85.10
40374;DHT22;26079;45.958;12.492;2023-07-13T12:26:03;28.80;85.20
40374;DHT22;26079;45.958;12.492;2023-07-13T12:28:33;28.80;83.90
40374;DHT22;26079;45.958;12.492;2023-07-13T12:31:02;28.70;83.50
40374;DHT22;26079;45.958;12.492;2023-07-13T12:34:07;28.60;83.90
40374;DHT22;26079;45.958;12.492;2023-07-13T12:36:36;28.70;84.70
40374;DHT22;26079;45.958;12.492;2023-07-13T12:39:12;28.70;84.50
40374;DHT22;26079;45.958;12.492;2023-07-13T12:41:38;28.70;83.80
40374;DHT22;26079;45.958;12.492;2023-07-13T12:44:11;28.70;83.50
40374;DHT22;26079;45.958;12.492;2023-07-13T12:46:37;28.60;84.50
40374;DHT22;26079;45.958;12.492;2023-07-13T12:49:06;28.60;84.90
40374;DHT22;26079;45.958;12.492;2023-07-13T12:51:32;28.60;85.40
40374;DHT22;26079;45.958;12.492;2023-07-13T12:54:18;28.50;84.30
40374;DHT22;26079;45.958;12.492;2023-07-13T12:56:45;28.50;82.20
40374;DHT22;26079;45.958;12.492;2023-07-13T12:59:18;28.60;84.60
40374;DHT22;26079;45.958;12.492;2023-07-13T13:01:45;28.70;84.00
40374;DHT22;26079;45.958;12.492;2023-07-13T13:04:11;28.80;82.20
40374;DHT22;26079;45.958;12.492;2023-07-13T13:06:38;28.90;82.90
40374;DHT22;26079;45.958;12.492;2023-07-13T13:09:14;29.00;80.70
40374;DHT22;26079;45.958;12.492;2023-07-13T13:11:41;29.00;81.40
40374;DHT22;26079;45.958;12.492;2023-07-13T13:14:08;29.00;81.70
40374;DHT22;26079;45.958;12.492;2023-07-13T13:16:47;29.10;78.90
40374;DHT22;26079;45.958;12.492;2023-07-13T13:19:19;29.20;80.30
40374;DHT22;26079;45.958;12.492;2023-07-13T13:21:48;29.30;78.50
40374;DHT22;26079;45.958;12.492;2023-07-13T13:24:17;29.30;80.20
40374;DHT22;26079;45.958;12.492;2023-07-13T13:26:45;29.30;77.10
40374;DHT22;26079;45.958;12.492;2023-07-13T13:29:23;29.40;78.10
40374;DHT22;26079;45.958;12.492;2023-07-13T13:31:52;29.40;78.20
40374;DHT22;26079;45.958;12.492;2023-07-13T13:34:20;29.40;78.20
40374;DHT22;26079;45.958;12.492;2023-07-13T13:36:49;29.20;78.90
40374;DHT22;26079;45.958;12.492;2023-07-13T13:39:33;29.10;79.20
40374;DHT22;26079;45.958;12.492;2023-07-13T13:41:59;29.00;78.70
40374;DHT22;26079;45.958;12.492;2023-07-13T13:44:25;29.00;79.70
40374;DHT22;26079;45.958;12.492;2023-07-13T13:46:53;29.00;80.90
40374;DHT22;26079;45.958;12.492;2023-07-13T13:49:22;29.10;82.90
40374;DHT22;26079;45.958;12.492;2023-07-13T13:51:49;29.20;81.20
40374;DHT22;26079;45.958;12.492;2023-07-13T13:54:16;29.20;78.50
40374;DHT22;26079;45.958;12.492;2023-07-13T13:56:45;29.20;78.90
40374;DHT22;26079;45.958;12.492;2023-07-13T13:59:11;29.40;79.90
40374;DHT22;26079;45.958;12.492;2023-07-13T14:01:38;29.60;81.30
40374;DHT22;26079;45.958;12.492;2023-07-13T14:04:05;29.60;76.30
40374;DHT22;26079;45.958;12.492;2023-07-13T14:06:31;29.50;77.20
40374;DHT22;26079;45.958;12.492;2023-07-13T14:08:57;29.30;79.10
40374;DHT22;26079;45.958;12.492;2023-07-13T14:11:23;29.10;80.50
40374;DHT22;26079;45.958;12.492;2023-07-13T14:13:52;28.90;80.20
40374;DHT22;26079;45.958;12.492;2023-07-13T14:16:20;28.80;80.40
40374;DHT22;26079;45.958;12.492;2023-07-13T14:18:47;28.70;80.10
40374;DHT22;26079;45.958;12.492;2023-07-13T14:21:15;28.60;79.80
40374;DHT22;26079;45.958;12.492;2023-07-13T14:23:42;28.60;81.10
40374;DHT22;26079;45.958;12.492;2023-07-13T14:26:24;28.50;79.90
40374;DHT22;26079;45.958;12.492;2023-07-13T14:28:55;28.50;81.30
40374;DHT22;26079;45.958;12.492;2023-07-13T14:31:22;28.50;81.10
40374;DHT22;26079;45.958;12.492;2023-07-13T14:33:48;28.40;81.90
40374;DHT22;26079;45.958;12.492;2023-07-13T14:36:25;28.40;83.20
40374;DHT22;26079;45.958;12.492;2023-07-13T14:38:53;28.20;83.50
40374;DHT22;26079;45.958;12.492;2023-07-13T14:41:20;28.10;84.90
40374;DHT22;26079;45.958;12.492;2023-07-13T14:43:46;28.00;85.60
40374;DHT22;26079;45.958;12.492;2023-07-13T14:46:31;27.90;85.40
40374;DHT22;26079;45.958;12.492;2023-07-13T14:49:03;27.80;84.40
40374;DHT22;26079;45.958;12.492;2023-07-13T14:51:30;27.70;85.20
40374;DHT22;26079;45.958;12.492;2023-07-13T14:53:56;27.60;85.10
40374;DHT22;26079;45.958;12.492;2023-07-13T14:56:22;27.50;85.50
40374;DHT22;26079;45.958;12.492;2023-07-13T14:58:48;27.40;85.40
40374;DHT22;26079;45.958;12.492;2023-07-13T15:01:14;27.40;85.70
40374;DHT22;26079;45.958;12.492;2023-07-13T15:03:44;27.30;86.20
40374;DHT22;26079;45.958;12.492;2023-07-13T15:06:12;27.30;89.20
40374;DHT22;26079;45.958;12.492;2023-07-13T15:08:38;27.10;91.50
40374;DHT22;26079;45.958;12.492;2023-07-13T15:11:10;26.90;91.60
40374;DHT22;26079;45.958;12.492;2023-07-13T15:13:41;26.80;91.30
40374;DHT22;26079;45.958;12.492;2023-07-13T15:16:23;26.60;93.30
40374;DHT22;26079;45.958;12.492;2023-07-13T15:18:50;26.50;94.80
40374;DHT22;26079;45.958;12.492;2023-07-13T15:21:22;26.40;95.40
40374;DHT22;26079;45.958;12.492;2023-07-13T15:23:49;26.20;96.10
40374;DHT22;26079;45.958;12.492;2023-07-13T15:26:17;26.00;98.10
40374;DHT22;26079;45.958;12.492;2023-07-13T15:28:44;25.80;99.90
40374;DHT22;26079;45.958;12.492;2023-07-13T15:31:22;25.70;99.90
40374;DHT22;26079;45.958;12.492;2023-07-13T15:33:52;25.50;99.90
40374;DHT22;26079;45.958;12.492;2023-07-13T15:36:21;25.40;99.90
40374;DHT22;26079;45.958;12.492;2023-07-13T15:38:48;25.20;99.10
40374;DHT22;26079;45.958;12.492;2023-07-13T15:41:19;24.90;99.40
40374;DHT22;26079;45.958;12.492;2023-07-13T15:43:47;24.60;99.90
40374;DHT22;26079;45.958;12.492;2023-07-13T15:46:13;24.30;99.90
40374;DHT22;26079;45.958;12.492;2023-07-13T15:48:39;24.10;99.90
40374;DHT22;26079;45.958;12.492;2023-07-13T15:51:11;24.10;99.90
40374;DHT22;26079;45.958;12.492;2023-07-13T15:53:39;24.10;99.90
40374;DHT22;26079;45.958;12.492;2023-07-13T15:56:18;24.10;99.90
40374;DHT22;26079;45.958;12.492;2023-07-13T15:58:44;24.00;99.90
40374;DHT22;26079;45.958;12.492;2023-07-13T16:01:10;24.00;99.90